RPLL/MNL METAR and TAF weather

Enter ICAO airport designator
Station Type Date Time Source
RPLL METAR 2019/08/24 06:00 UTC NOAA

RPLL 240600Z 22011KT 9999 BKN023 BKN080 30/25 Q1005 NOSIG RMK A2968


Station Type Date Time Source
RPLL Decoded METAR 2019/08/24 06:00 UTC NOAA

Station name not available
Aug 24, 2019 - 02:00 AM EDT / 2019.08.24 0600 UTC
Wind: from the SW (220 degrees) at 13 MPH (11 KT):0
Visibility: greater than 7 mile(s):0
Sky conditions: mostly cloudy
Temperature: 86 F (30 C)
Heat index: 96.8 F (36.0 C):1
Dew Point: 77 F (25 C)
Relative Humidity: 74%
Pressure (altimeter): 29.68 in. Hg (1005 hPa)
ob: RPLL 240600Z 22011KT 9999 BKN023 BKN080 30/25 Q1005 NOSIG RMK A2968
cycle: 6

Station Type Date Time Source
RPLL TAF 2019/08/24 06:05 UTC NOAA

TAF RPLL 240500Z 2406/2512 25008KT 9999 FEW023 BKN100 TX29/2407Z TN26/2421Z
TEMPO 2406/2412 24017KT 7000 -RA FEW022CB SCT023 OVC090
TEMPO 2414/2420 26014KT 9000 -SHRA FEW022CB SCT023 BKN090 OVC250

Example: see airport list